Impacts TAF Board INFO
FOR SITUATIONAL AWARENESS. NOT TO BE USED FOR FLIGHT PLANNING PURPOSES.
IDs:

KIAD - Washington/Dulles In, VA, US

Issued at 1731 UTC 24 Jun 2018
Updated at 1830 UTC 24 Jun 2018
Potential Impact None Slight Moderate High
Time<<25/19Z 25/20Z 25/21Z 25/22Z 25/23Z 26/00Z 26/01Z 26/02Z 26/03Z 26/04Z 26/05Z 26/06Z 26/07Z
Type PRVL PRVL PRVL PRVL PRVL
VIS >6 >6 >6 >6 >6
CIG -- -- -- -- --
Cover SCT SCT SCT SCT SCT
FltCat VFR VFR VFR VFR VFR
WX -- -- -- -- --
WDir 330 330 330 330 330
WSpd 7 7 7 7 7
WGst -- -- -- -- --

Raw TAF
KIAD 241731Z 2418/2524 27007KT P6SM SCT050 BKN110
  FM241900 25007KT P6SM VCTS BKN050CB
  FM250000 29006KT P6SM SCT060
  FM251100 33007KT P6SM SCT250


METAR Board
Radar Display
Forecast Discussion

FOR SITUATIONAL AWARENESS. NOT TO BE USED FOR FLIGHT PLANNING PURPOSES.